Time;durP1;ratioP1;P1;durP2;ratioP2;P2;SDS_P1;SDS_P2;PMS_P1;PMS_P2;Temp;Humidity;BMP_temperature;BMP_pressure;BME280_temperature;BME280_humidity;BME280_pressure;Samples;Min_cycle;Max_cycle;Signal;HPM_P1;HPM_P2
2023/05/09 00:00:37;;;;;;;98.75;44.42;;;12.20;99.90;;;;;;6244487;23;20118;-89
2023/05/09 00:03:28;;;;;;;127.03;52.97;;;12.20;99.90;;;;;;6222339;23;20308;-88
2023/05/09 00:06:16;;;;;;;105.45;48.65;;;12.20;99.90;;;;;;6201819;23;20028;-89
2023/05/09 00:09:04;;;;;;;133.23;52.33;;;12.20;99.90;;;;;;6223584;23;20406;-88
2023/05/09 00:11:51;;;;;;;109.82;46.72;;;12.10;99.90;;;;;;6247300;23;20025;-89
2023/05/09 00:14:41;;;;;;;88.13;42.53;;;12.10;99.90;;;;;;6242334;23;20028;-88
2023/05/09 00:17:29;;;;;;;116.28;47.95;;;12.10;99.90;;;;;;6244558;23;20028;-89
2023/05/09 00:20:19;;;;;;;119.35;46.85;;;12.10;99.90;;;;;;6221078;23;20024;-87
2023/05/09 00:23:13;;;;;;;112.15;49.75;;;12.10;99.90;;;;;;6222596;23;20024;-88
2023/05/09 00:26:02;;;;;;;127.77;50.87;;;12.10;99.90;;;;;;6223315;23;20400;-87
2023/05/09 00:28:52;;;;;;;101.38;48.40;;;12.20;99.90;;;;;;6223494;22;20020;-88
2023/05/09 00:31:39;;;;;;;105.93;48.08;;;12.20;99.90;;;;;;6244407;23;20074;-90
2023/05/09 00:34:26;;;;;;;132.20;52.53;;;12.20;99.90;;;;;;6243021;23;20051;-89
2023/05/09 00:37:14;;;;;;;124.72;51.92;;;12.10;99.90;;;;;;6221854;23;20415;-89
2023/05/09 00:40:02;;;;;;;144.90;49.28;;;12.10;99.90;;;;;;6221880;23;20024;-91
2023/05/09 00:42:51;;;;;;;125.70;43.65;;;12.20;99.90;;;;;;6245880;23;20032;-88
2023/05/09 00:45:38;;;;;;;98.03;41.75;;;12.10;99.90;;;;;;6246790;22;20723;-89
2023/05/09 00:48:34;;;;;;;90.53;38.95;;;12.00;99.90;;;;;;6245599;23;20093;-89
2023/05/09 00:51:24;;;;;;;83.75;37.80;;;12.00;99.90;;;;;;6246672;22;20122;-89
2023/05/09 00:54:15;;;;;;;74.30;35.00;;;12.00;99.90;;;;;;6223783;23;20032;-89
2023/05/09 00:57:02;;;;;;;82.68;39.28;;;12.00;99.90;;;;;;6243846;23;20091;-89
2023/05/09 00:59:51;;;;;;;96.97;41.90;;;12.10;99.90;;;;;;6224217;23;20024;-89
2023/05/09 01:02:46;;;;;;;91.47;40.78;;;12.10;99.90;;;;;;6243106;23;20062;-88
2023/05/09 01:06:10;;;;;;;85.07;38.30;;;12.10;99.90;;;;;;6247883;22;20154;-88
2023/05/09 01:09:22;;;;;;;106.97;43.30;;;12.10;99.90;;;;;;6224701;23;20028;-89
2023/05/09 01:12:40;;;;;;;112.20;43.83;;;12.10;99.90;;;;;;6223566;23;20024;-90
2023/05/09 01:15:36;;;;;;;91.82;40.33;;;12.20;99.90;;;;;;6246200;23;20431;-89
2023/05/09 01:18:37;;;;;;;80.80;39.28;;;12.20;99.90;;;;;;6224606;23;20028;-90
2023/05/09 01:21:28;;;;;;;109.07;45.65;;;12.20;99.90;;;;;;6243309;23;20032;-89
2023/05/09 01:24:43;;;;;;;132.52;51.70;;;12.30;99.90;;;;;;6223539;23;20534;-89
2023/05/09 01:27:45;;;;;;;136.73;53.25;;;12.30;99.90;;;;;;6223099;23;20073;-89
2023/05/09 01:30:55;;;;;;;96.32;38.83;;;12.30;99.90;;;;;;6226485;23;20038;-89
2023/05/09 01:33:51;;;;;;;131.65;51.15;;;12.30;99.90;;;;;;6248134;22;20040;-90
2023/05/09 01:36:41;;;;;;;140.68;52.63;;;12.20;99.90;;;;;;6243683;23;20335;-88
2023/05/09 01:39:31;;;;;;;138.63;54.58;;;12.20;99.90;;;;;;6246057;23;20027;-88
2023/05/09 01:42:23;;;;;;;136.45;53.28;;;12.20;99.90;;;;;;6226937;23;20086;-88
2023/05/09 01:45:14;;;;;;;137.90;52.60;;;12.10;99.90;;;;;;6225333;23;20351;-90
2023/05/09 01:48:03;;;;;;;130.20;52.85;;;12.00;99.90;;;;;;6229954;23;20326;-89
2023/05/09 01:50:51;;;;;;;140.85;53.75;;;11.90;99.90;;;;;;6218564;23;20051;-86
2023/05/09 01:53:42;;;;;;;132.52;54.20;;;11.90;99.90;;;;;;6246017;23;20020;-86
2023/05/09 01:56:30;;;;;;;147.40;55.22;;;11.80;99.90;;;;;;6246626;22;20055;-85
2023/05/09 01:59:21;;;;;;;170.85;56.95;;;11.80;99.90;;;;;;6224330;23;20107;-87
2023/05/09 02:02:09;;;;;;;151.18;55.25;;;11.80;99.90;;;;;;6224637;23;20024;-85
2023/05/09 02:05:20;;;;;;;132.88;53.58;;;11.80;99.90;;;;;;6243273;23;20032;-84
2023/05/09 02:08:08;;;;;;;122.45;50.17;;;11.70;99.90;;;;;;6243455;23;20028;-85
2023/05/09 02:10:55;;;;;;;127.68;50.80;;;11.70;99.90;;;;;;6245425;23;20056;-84
2023/05/09 02:13:42;;;;;;;150.48;53.28;;;11.60;99.90;;;;;;6223565;23;20020;-85
2023/05/09 02:16:31;;;;;;;166.95;58.95;;;11.60;99.90;;;;;;6223782;23;20094;-85
2023/05/09 02:19:19;;;;;;;135.23;53.75;;;11.70;99.90;;;;;;6244109;23;20304;-86
2023/05/09 02:22:10;;;;;;;130.48;51.47;;;11.80;99.90;;;;;;6225488;23;20379;-88
2023/05/09 02:25:03;;;;;;;126.75;50.75;;;11.80;99.90;;;;;;6251906;22;20028;-86
2023/05/09 02:27:54;;;;;;;126.22;50.67;;;11.70;99.90;;;;;;6259594;22;20024;-85
2023/05/09 02:30:44;;;;;;;128.25;50.78;;;11.70;99.90;;;;;;6233074;23;20024;-85
2023/05/09 02:33:35;;;;;;;127.75;50.25;;;11.70;99.90;;;;;;6227196;23;20028;-83
2023/05/09 02:36:25;;;;;;;129.23;49.22;;;11.70;99.90;;;;;;6222195;23;20110;-85
2023/05/09 02:39:12;;;;;;;117.15;45.45;;;11.70;99.90;;;;;;6223849;23;20023;-84
2023/05/09 02:42:08;;;;;;;109.30;42.90;;;11.60;99.90;;;;;;6246394;22;20379;-85
2023/05/09 02:44:55;;;;;;;90.07;39.83;;;11.60;99.90;;;;;;6241667;23;20086;-85
2023/05/09 02:47:43;;;;;;;100.00;40.53;;;11.60;99.90;;;;;;6242369;23;20035;-85
2023/05/09 02:50:30;;;;;;;93.80;39.65;;;11.60;99.90;;;;;;6243719;23;20082;-85
2023/05/09 02:53:17;;;;;;;99.65;40.50;;;11.50;99.90;;;;;;6224802;23;20057;-86
2023/05/09 02:56:09;;;;;;;103.70;43.30;;;11.50;99.90;;;;;;6245465;23;20525;-85
2023/05/09 02:58:56;;;;;;;138.52;48.13;;;11.50;99.90;;;;;;6221112;23;20020;-85
2023/05/09 03:01:46;;;;;;;153.23;50.15;;;11.50;99.90;;;;;;6242235;23;20086;-86
2023/05/09 03:04:33;;;;;;;125.95;47.05;;;11.50;99.90;;;;;;6245245;23;20027;-85
2023/05/09 03:07:21;;;;;;;128.43;48.35;;;11.50;99.90;;;;;;6223749;23;20032;-86
2023/05/09 03:10:10;;;;;;;129.43;48.90;;;11.40;99.90;;;;;;6223000;23;20023;-85
2023/05/09 03:12:57;;;;;;;138.93;51.22;;;11.40;99.90;;;;;;6221314;23;20494;-85
2023/05/09 03:15:45;;;;;;;123.07;48.20;;;11.40;99.90;;;;;;6244715;23;20179;-86
2023/05/09 03:18:32;;;;;;;152.25;52.15;;;11.40;99.90;;;;;;6223423;23;20327;-86
2023/05/09 03:21:28;;;;;;;161.82;55.83;;;11.40;99.90;;;;;;6244635;23;20162;-84
2023/05/09 03:24:15;;;;;;;157.10;55.58;;;11.40;99.90;;;;;;6243148;23;20404;-86
2023/05/09 03:27:03;;;;;;;158.60;56.05;;;11.40;99.90;;;;;;6224444;23;20028;-86
2023/05/09 03:29:50;;;;;;;153.48;57.45;;;11.40;99.90;;;;;;6223863;23;20147;-87
2023/05/09 03:32:40;;;;;;;154.65;55.33;;;11.40;99.90;;;;;;6220712;23;20027;-86
2023/05/09 03:35:30;;;;;;;146.68;54.20;;;11.40;99.90;;;;;;6241795;23;20042;-86
2023/05/09 03:38:23;;;;;;;152.82;54.60;;;11.40;99.90;;;;;;6224860;23;20051;-86
2023/05/09 03:41:12;;;;;;;171.15;56.65;;;11.40;99.90;;;;;;6219500;23;20024;-85
2023/05/09 03:44:03;;;;;;;135.95;52.40;;;11.40;99.90;;;;;;6241496;23;20078;-85
2023/05/09 03:46:50;;;;;;;149.35;54.30;;;11.30;99.90;;;;;;6242624;23;20107;-85
2023/05/09 03:49:38;;;;;;;131.57;51.85;;;11.30;99.90;;;;;;6220037;23;20090;-87
2023/05/09 03:52:25;;;;;;;134.80;48.10;;;11.20;99.90;;;;;;6220925;23;20027;-85
2023/05/09 03:55:12;;;;;;;153.52;49.17;;;11.30;99.90;;;;;;6243115;23;20020;-85
2023/05/09 03:58:02;;;;;;;148.18;46.75;;;11.30;99.90;;;;;;6244539;23;20416;-85
2023/05/09 04:00:49;;;;;;;191.52;50.20;;;11.40;99.90;;;;;;6222301;23;20518;-86
2023/05/09 04:03:58;;;;;;;167.95;43.78;;;11.40;99.90;;;;;;6249895;22;20024;-86
2023/05/09 04:06:45;;;;;;;176.57;46.92;;;11.50;99.90;;;;;;6243236;23;20035;-87
2023/05/09 04:09:33;;;;;;;207.57;46.35;;;11.50;99.90;;;;;;6243017;23;20028;-86
2023/05/09 04:12:20;;;;;;;205.52;44.05;;;11.50;99.90;;;;;;6222385;23;20367;-86
2023/05/09 04:15:08;;;;;;;337.80;47.70;;;11.50;99.90;;;;;;6223291;23;20056;-85
2023/05/09 04:17:56;;;;;;;379.73;50.95;;;11.50;99.90;;;;;;6244133;23;20461;-83
2023/05/09 04:20:43;;;;;;;249.68;47.75;;;11.50;99.90;;;;;;6245552;23;20021;-85
2023/05/09 04:23:30;;;;;;;348.90;51.05;;;11.60;99.90;;;;;;6225922;23;20416;-85
2023/05/09 04:26:17;;;;;;;827.47;72.28;;;11.60;99.90;;;;;;6225228;23;20087;-83
2023/05/09 04:29:05;;;;;;;602.42;59.15;;;11.60;99.90;;;;;;6245796;23;20032;-85
2023/05/09 04:31:52;;;;;;;597.05;62.45;;;11.60;99.90;;;;;;6223658;23;20028;-85
2023/05/09 04:34:40;;;;;;;755.25;69.85;;;11.60;99.90;;;;;;6220945;23;20048;-85
2023/05/09 04:37:27;;;;;;;607.05;60.53;;;11.60;99.90;;;;;;6222243;23;20245;-84
2023/05/09 04:40:15;;;;;;;433.13;53.22;;;11.60;99.90;;;;;;6225067;23;20427;-85
2023/05/09 04:43:03;;;;;;;334.38;49.17;;;11.60;99.90;;;;;;6220831;23;20024;-83
2023/05/09 04:45:52;;;;;;;180.38;37.63;;;11.80;99.90;;;;;;6223207;23;20028;-83
2023/05/09 04:48:42;;;;;;;288.23;46.90;;;11.90;99.90;;;;;;6247312;22;20020;-85
2023/05/09 04:51:29;;;;;;;366.42;49.00;;;12.00;99.90;;;;;;6224601;23;20028;-85
2023/05/09 04:54:16;;;;;;;173.90;42.92;;;12.20;99.90;;;;;;6245274;23;20028;-85
2023/05/09 04:57:05;;;;;;;181.23;44.55;;;12.30;99.90;;;;;;6246969;22;20020;-87
2023/05/09 05:00:10;;;;;;;236.13;43.65;;;12.40;99.90;;;;;;6245894;23;20028;-88
2023/05/09 05:02:57;;;;;;;323.27;45.50;;;12.40;99.90;;;;;;6225057;23;20020;-85
2023/05/09 05:05:44;;;;;;;118.65;39.20;;;12.30;99.90;;;;;;6224843;23;20341;-85
2023/05/09 05:08:32;;;;;;;166.82;42.53;;;12.40;99.90;;;;;;6246297;23;20158;-87
2023/05/09 05:11:20;;;;;;;169.20;42.80;;;12.50;99.90;;;;;;6245023;23;20043;-86
2023/05/09 05:14:07;;;;;;;141.30;40.67;;;12.70;99.90;;;;;;6246137;23;20039;-87
2023/05/09 05:16:55;;;;;;;118.50;37.92;;;12.70;99.90;;;;;;6243672;23;20020;-88
2023/05/09 05:19:42;;;;;;;124.63;37.03;;;12.90;99.90;;;;;;6245937;23;20124;-88
2023/05/09 05:22:32;;;;;;;133.80;39.50;;;13.10;99.90;;;;;;6247189;22;20024;-87
2023/05/09 05:25:19;;;;;;;106.72;36.92;;;12.80;99.90;;;;;;6245336;23;20371;-87
2023/05/09 05:28:08;;;;;;;152.40;42.72;;;12.60;99.90;;;;;;6247771;22;20103;-87
2023/05/09 05:31:01;;;;;;;114.82;40.60;;;12.60;99.90;;;;;;6244364;23;20574;-89
2023/05/09 05:33:48;;;;;;;118.65;41.90;;;12.50;99.90;;;;;;6223077;23;20166;-86
2023/05/09 05:36:35;;;;;;;115.13;39.05;;;12.50;99.90;;;;;;6221774;23;20060;-87
2023/05/09 05:39:24;;;;;;;125.78;41.75;;;12.50;99.90;;;;;;6244099;23;20467;-87
2023/05/09 05:42:15;;;;;;;122.07;41.47;;;12.60;99.90;;;;;;6241469;23;20035;-89
2023/05/09 05:45:03;;;;;;;114.20;40.28;;;12.70;99.90;;;;;;6221217;23;20036;-87
2023/05/09 05:47:51;;;;;;;104.05;40.00;;;12.70;99.90;;;;;;6243226;23;20103;-86
2023/05/09 05:50:40;;;;;;;113.53;40.80;;;12.90;99.90;;;;;;6242927;23;20023;-88
2023/05/09 05:53:31;;;;;;;100.53;42.80;;;13.20;99.90;;;;;;6224211;23;20486;-88
2023/05/09 05:56:19;;;;;;;93.68;38.85;;;13.20;99.90;;;;;;6244335;23;20316;-89
2023/05/09 05:59:10;;;;;;;96.80;43.25;;;13.20;99.90;;;;;;6242467;23;20024;-89
2023/05/09 06:01:59;;;;;;;90.37;38.90;;;13.40;99.90;;;;;;6226059;23;20031;-87
2023/05/09 06:04:47;;;;;;;82.80;39.00;;;13.40;99.90;;;;;;6224790;23;20859;-88
2023/05/09 06:07:38;;;;;;;74.78;35.50;;;13.40;99.90;;;;;;6221814;23;20050;-86
2023/05/09 06:10:28;;;;;;;70.45;33.50;;;13.60;99.90;;;;;;6239925;23;20113;-88
2023/05/09 06:13:17;;;;;;;69.35;34.90;;;14.10;99.90;;;;;;6223065;23;20696;-88
2023/05/09 06:16:05;;;;;;;57.65;31.67;;;14.20;99.90;;;;;;6241186;23;20113;-89
2023/05/09 06:19:07;;;;;;;60.33;31.23;;;13.90;99.90;;;;;;6220007;22;20059;-88
2023/05/09 06:21:55;;;;;;;58.00;30.85;;;13.80;99.90;;;;;;6240231;23;20028;-87
2023/05/09 06:24:44;;;;;;;55.95;29.73;;;13.90;99.90;;;;;;6242489;23;20467;-88
2023/05/09 06:27:34;;;;;;;46.25;27.25;;;13.90;99.90;;;;;;6221159;23;20043;-86
2023/05/09 06:30:21;;;;;;;41.75;25.73;;;14.00;99.90;;;;;;6212866;23;20027;-86
2023/05/09 06:33:13;;;;;;;40.45;26.23;;;14.30;99.90;;;;;;6242955;23;20135;-87
2023/05/09 06:36:00;;;;;;;34.95;23.60;;;14.30;99.90;;;;;;6218557;23;20054;-87
2023/05/09 06:38:50;;;;;;;33.15;23.38;;;14.40;99.90;;;;;;6241303;23;20023;-88
2023/05/09 06:41:38;;;;;;;31.50;22.98;;;14.60;99.90;;;;;;6240517;22;20020;-89
2023/05/09 06:44:27;;;;;;;26.80;19.67;;;14.80;99.90;;;;;;6201786;23;20038;-89
2023/05/09 06:47:14;;;;;;;21.67;16.75;;;15.00;99.90;;;;;;6215762;23;20024;-88
2023/05/09 06:50:01;;;;;;;18.98;12.90;;;15.10;99.90;;;;;;6218677;23;20158;-89
2023/05/09 06:52:51;;;;;;;18.30;11.68;;;15.20;99.90;;;;;;6220495;23;20454;-87
2023/05/09 06:55:43;;;;;;;13.20;10.80;;;15.30;99.90;;;;;;6222956;23;20031;-86
2023/05/09 06:58:33;;;;;;;12.90;10.52;;;15.40;99.90;;;;;;6225296;23;20072;-86
2023/05/09 07:01:25;;;;;;;14.00;10.93;;;15.40;99.90;;;;;;6255344;23;20047;-85
2023/05/09 07:04:15;;;;;;;;;;;15.50;99.90;;;;;;6253393;23;20341;-86
2023/05/09 07:07:02;;;;;;;14.60;11.32;;;15.80;99.90;;;;;;6232072;23;20322;-89
2023/05/09 07:09:50;;;;;;;16.42;10.50;;;16.10;99.90;;;;;;6223150;23;20085;-87
2023/05/09 07:12:47;;;;;;;11.85;9.05;;;16.20;99.90;;;;;;6216854;23;20020;-87
2023/05/09 07:15:37;;;;;;;15.32;10.52;;;16.40;99.90;;;;;;6242860;23;20372;-87
2023/05/09 07:18:31;;;;;;;15.55;11.05;;;16.50;99.90;;;;;;6242018;23;20035;-90
2023/05/09 07:21:34;;;;;;;14.07;11.38;;;16.60;99.90;;;;;;6200821;23;20024;-90
2023/05/09 07:33:30;;;;;;;15.88;11.27;;;16.80;99.90;;;;;;6066256;23;20022;-92
2023/05/09 07:36:36;;;;;;;18.15;11.45;;;16.80;99.90;;;;;;6126633;23;20036;-89
2023/05/09 08:09:38;;;;;;;;;;;;;;;;;;;;;
2023/05/09 08:12:52;;;;;;;13.45;9.35;;;16.80;80.40;;;;;;6097031;23;20018;-92
2023/05/09 08:50:16;;;;;;;9.77;7.32;;;18.60;99.30;;;;;;6001838;23;20350;-91
2023/05/09 08:53:54;;;;;;;11.80;7.32;;;18.20;1.00;;;;;;6011324;23;20063;-92
2023/05/09 08:57:06;;;;;;;;;;;;;;;;;;;;;
2023/05/09 09:04:45;;;;;;;;;;;;;;;;;;;;;
2023/05/09 09:08:16;;;;;;;;;;;;;;;;;;;;;
2023/05/09 09:11:21;;;;;;;11.00;7.57;;;18.40;99.90;;;;;;6245175;23;20371;-89
2023/05/09 09:27:10;;;;;;;11.95;6.68;;;17.50;99.90;;;;;;6265714;22;20015;-91
2023/05/09 09:35:12;;;;;;;;;;;;;;;;;;;;;
2023/05/09 09:43:01;;;;;;;8.52;6.28;;;19.60;99.90;;;;;;6066408;23;20022;-90
2023/05/09 09:46:58;;;;;;;8.18;6.63;;;19.70;64.30;;;;;;6050066;23;20022;-92
2023/05/09 09:49:47;;;;;;;11.30;9.45;;;19.70;30.30;;;;;;6082260;23;20038;-91
2023/05/09 09:57:50;;;;;;;9.95;7.60;;;19.50;79.60;;;;;;6006541;23;20428;-93
2023/05/09 10:01:23;;;;;;;9.75;8.82;;;20.80;1.00;;;;;;5988933;23;20019;-90
2023/05/09 10:08:01;;;;;;;11.10;9.00;;;20.40;1.00;;;;;;5874607;24;20079;-88
2023/05/09 10:11:03;;;;;;;12.13;9.52;;;20.70;1.00;;;;;;5901518;24;20100;-89
2023/05/09 10:13:58;;;;;;;8.60;6.60;;;20.80;1.00;;;;;;5978273;24;20120;-89
2023/05/09 10:20:39;;;;;;;;;;;;;;;;;;;;;
2023/05/09 10:27:46;;;;;;;9.07;4.45;;;24.70;99.90;;;;;;6150994;23;20017;-91
2023/05/09 10:31:11;;;;;;;6.30;4.63;;;25.00;99.90;;;;;;6144522;23;20424;-89
2023/05/09 10:34:38;;;;;;;5.20;3.83;;;24.60;99.90;;;;;;6151262;23;20040;-93
2023/05/09 10:37:40;;;;;;;3.92;2.90;;;24.00;99.90;;;;;;6059383;23;20491;-88
2023/05/09 10:44:47;;;;;;;4.68;3.65;;;24.60;99.90;;;;;;6254692;22;20024;-89
2023/05/09 10:52:05;;;;;;;3.47;3.15;;;24.60;99.90;;;;;;6226050;23;20008;-89
2023/05/09 10:55:33;;;;;;;3.47;3.17;;;25.00;99.90;;;;;;6224225;23;20028;-91
2023/05/09 10:58:25;;;;;;;3.50;3.20;;;24.10;99.90;;;;;;6237992;23;20028;-92
2023/05/09 11:05:19;;;;;;;2.63;2.42;;;23.60;99.90;;;;;;6223684;23;20055;-90
2023/05/09 11:08:41;;;;;;;3.35;2.97;;;24.00;99.90;;;;;;6243561;23;20027;-93
2023/05/09 11:11:28;;;;;;;3.80;3.42;;;23.20;99.90;;;;;;6216868;23;20719;-89
2023/05/09 11:33:29;;;;;;;3.70;3.30;;;24.90;99.90;;;;;;6230727;22;20024;-91
2023/05/09 11:36:32;;;;;;;4.07;3.58;;;24.30;93.80;;;;;;6213102;23;20278;-88
2023/05/09 11:39:24;;;;;;;3.75;2.90;;;23.80;99.30;;;;;;6243923;23;20051;-88
2023/05/09 11:42:16;;;;;;;4.10;3.40;;;23.40;99.90;;;;;;6225149;23;20024;-85
2023/05/09 11:45:06;;;;;;;3.03;2.75;;;23.00;99.90;;;;;;6242650;23;20243;-87
2023/05/09 11:47:53;;;;;;;3.08;2.55;;;22.30;99.90;;;;;;6222831;23;20028;-86
2023/05/09 11:50:41;;;;;;;4.63;2.80;;;21.90;99.90;;;;;;6247444;23;20111;-89
2023/05/09 11:53:45;;;;;;;4.85;2.65;;;21.50;99.90;;;;;;6224361;23;20138;-89
2023/05/09 11:56:40;;;;;;;6.13;3.53;;;21.60;99.90;;;;;;6243007;23;20055;-89
2023/05/09 11:59:33;;;;;;;5.22;2.63;;;21.80;99.90;;;;;;6219266;23;20024;-87
2023/05/09 12:02:23;;;;;;;3.95;2.90;;;22.50;99.90;;;;;;6245428;23;20110;-92
2023/05/09 12:05:17;;;;;;;3.58;2.80;;;22.20;99.90;;;;;;6247432;23;20024;-92
2023/05/09 12:12:22;;;;;;;4.38;3.28;;;21.50;99.90;;;;;;6245740;23;20004;-91
2023/05/09 12:19:44;;;;;;;3.67;3.38;;;20.60;99.90;;;;;;6073183;23;20094;-88
2023/05/09 12:23:27;;;;;;;3.40;3.03;;;20.60;99.90;;;;;;6067384;23;20378;-91
2023/05/09 12:34:43;;;;;;;5.57;2.78;;;19.80;99.90;;;;;;6070294;23;20011;-92
2023/05/09 12:38:37;;;;;;;3.35;2.72;;;19.80;99.90;;;;;;6013170;23;20158;-93
2023/05/09 12:42:58;;;;;;;;;;;;;;;;;;;;;
2023/05/09 12:54:22;;;;;;;2.47;2.10;;;22.30;99.90;;;;;;6016181;23;20030;-85
2023/05/09 12:57:21;;;;;;;1.77;1.52;;;22.80;99.90;;;;;;6217620;23;20665;-86
2023/05/09 13:00:11;;;;;;;1.75;1.38;;;22.90;99.90;;;;;;6226021;22;20038;-85
2023/05/09 13:03:38;;;;;;;1.80;1.40;;;22.80;99.90;;;;;;6226737;23;20024;-85
2023/05/09 13:06:48;;;;;;;2.28;1.05;;;22.60;95.80;;;;;;6224628;23;20019;-86
2023/05/09 13:10:04;;;;;;;;;;;;;;;;;;;;;
2023/05/09 13:13:21;;;;;;;2.33;1.47;;;22.30;72.30;;;;;;6247385;23;20016;-86
2023/05/09 13:20:41;;;;;;;;;;;;;;;;;;;;;
2023/05/09 13:23:48;;;;;;;2.75;1.45;;;21.30;99.90;;;;;;6096749;23;20094;-88
2023/05/09 13:27:30;;;;;;;;;;;;;;;;;;;;;
2023/05/09 13:31:29;;;;;;;;;;;;;;;;;;;;;
2023/05/09 13:38:44;;;;;;;1.77;1.67;;;20.40;99.90;;;;;;6122742;23;20029;-86
2023/05/09 13:41:55;;;;;;;6.72;2.13;;;20.10;99.90;;;;;;6039515;23;20038;-86
2023/05/09 13:44:55;;;;;;;2.08;1.58;;;20.00;99.90;;;;;;6105234;23;20066;-86
2023/05/09 13:48:32;;;;;;;1.77;1.67;;;20.10;99.90;;;;;;6103763;23;20030;-87
2023/05/09 13:51:45;;;;;;;1.73;1.60;;;20.50;99.90;;;;;;6121836;23;20018;-86
2023/05/09 13:54:52;;;;;;;2.20;1.98;;;20.80;99.90;;;;;;6108446;23;20029;-87
2023/05/09 13:57:48;;;;;;;7.13;2.35;;;21.20;99.90;;;;;;6142785;23;20035;-87
2023/05/09 14:04:53;;;;;;;1.90;1.70;;;22.40;99.90;;;;;;6244872;23;20039;-86
2023/05/09 14:07:49;;;;;;;;;;;23.60;85.00;;;;;;6245582;23;20036;-86
2023/05/09 14:10:39;;;;;;;3.72;1.75;;;24.00;58.40;;;;;;6247420;23;19919;-86
2023/05/09 14:13:32;;;;;;;2.60;1.90;;;24.40;89.50;;;;;;6223535;23;20034;-84
2023/05/09 14:16:25;;;;;;;3.50;1.90;;;25.00;60.50;;;;;;6223942;23;20027;-85
2023/05/09 14:20:14;;;;;;;2.60;1.40;;;25.60;40.00;;;;;;6243158;23;20028;-89
2023/05/09 14:23:12;;;;;;;1.40;1.30;;;25.90;26.80;;;;;;6138094;23;20061;-87
2023/05/09 14:26:11;;;;;;;2.13;1.30;;;26.30;22.40;;;;;;6225230;22;20038;-87
2023/05/09 14:33:01;;;;;;;1.80;1.33;;;25.30;22.50;;;;;;6244050;23;20004;-87
2023/05/09 14:36:06;;;;;;;2.15;1.50;;;24.60;22.60;;;;;;6247041;23;20035;-84
2023/05/09 14:38:55;;;;;;;1.50;1.40;;;24.10;23.60;;;;;;6226351;23;20082;-87
2023/05/09 14:41:45;;;;;;;1.33;1.23;;;23.50;32.50;;;;;;6224735;23;20292;-86
2023/05/09 14:44:44;;;;;;;1.30;1.20;;;23.20;40.80;;;;;;6224439;23;20035;-86
2023/05/09 14:47:32;;;;;;;1.40;1.30;;;23.10;42.10;;;;;;6241548;23;20032;-85
2023/05/09 14:50:22;;;;;;;1.67;1.58;;;22.90;55.30;;;;;;6222462;23;20024;-87
2023/05/09 14:53:10;;;;;;;1.42;1.30;;;22.70;71.70;;;;;;6243461;23;20024;-86
2023/05/09 14:55:57;;;;;;;3.53;1.67;;;22.90;68.00;;;;;;6243004;23;20024;-85
2023/05/09 14:58:45;;;;;;;1.58;1.30;;;23.00;72.30;;;;;;6221989;23;20091;-87
2023/05/09 15:01:32;;;;;;;6.43;1.60;;;23.10;84.60;;;;;;6241120;23;20024;-86
2023/05/09 15:04:19;;;;;;;2.90;1.55;;;22.90;91.60;;;;;;6245332;23;20031;-86
2023/05/09 15:07:13;;;;;;;1.92;1.48;;;22.20;99.90;;;;;;6222783;23;20028;-87
2023/05/09 15:10:03;;;;;;;1.85;1.55;;;21.80;99.00;;;;;;6243415;23;20028;-88
2023/05/09 15:12:54;;;;;;;2.67;1.80;;;21.70;99.90;;;;;;6225258;23;20491;-89
2023/05/09 15:15:58;;;;;;;1.88;1.70;;;21.10;99.90;;;;;;6229781;23;20028;-89
2023/05/09 15:18:47;;;;;;;;;;;20.70;99.90;;;;;;6164528;23;20072;-88
2023/05/09 15:21:35;;;;;;;1.80;1.65;;;20.50;99.90;;;;;;6160917;23;19916;-88
2023/05/09 15:24:25;;;;;;;2.75;1.67;;;20.40;99.90;;;;;;6162768;23;20036;-88
2023/05/09 15:27:13;;;;;;;1.67;1.48;;;20.50;99.90;;;;;;6180487;23;20431;-87
2023/05/09 15:30:01;;;;;;;1.75;1.52;;;20.60;99.90;;;;;;6183982;23;20033;-90
2023/05/09 15:32:50;;;;;;;1.50;1.40;;;20.60;99.90;;;;;;6183835;23;20029;-87
2023/05/09 15:35:38;;;;;;;2.55;2.03;;;20.70;99.90;;;;;;6167136;23;20440;-87
2023/05/09 15:38:26;;;;;;;4.68;1.65;;;20.80;99.90;;;;;;6247033;23;20031;-87
2023/05/09 15:41:15;;;;;;;1.65;1.38;;;20.80;99.90;;;;;;6222703;23;20020;-86
2023/05/09 15:44:15;;;;;;;1.95;1.65;;;20.60;99.90;;;;;;6222682;23;20024;-86
2023/05/09 15:47:05;;;;;;;2.45;1.73;;;20.40;99.90;;;;;;6243457;23;20032;-87
2023/05/09 15:50:02;;;;;;;3.58;1.70;;;20.30;99.90;;;;;;6246227;22;20028;-86
2023/05/09 15:52:51;;;;;;;1.83;1.58;;;20.40;99.90;;;;;;6242900;23;20028;-88
2023/05/09 15:55:38;;;;;;;1.40;1.30;;;20.50;99.90;;;;;;6246611;23;20032;-86
2023/05/09 15:58:25;;;;;;;2.42;1.88;;;20.60;99.90;;;;;;6220631;23;20072;-88
2023/05/09 16:01:13;;;;;;;4.78;1.55;;;20.60;99.90;;;;;;6201486;23;20032;-87
2023/05/09 16:04:04;;;;;;;1.75;1.20;;;20.50;99.90;;;;;;6244918;23;20031;-85
2023/05/09 16:06:54;;;;;;;11.50;1.88;;;20.40;99.90;;;;;;6223420;23;20376;-87
2023/05/09 16:09:42;;;;;;;1.40;1.30;;;20.40;99.90;;;;;;6224583;23;20028;-86
2023/05/09 16:12:31;;;;;;;1.70;1.05;;;20.30;99.90;;;;;;6245025;23;20368;-89
2023/05/09 16:15:19;;;;;;;3.90;1.30;;;20.20;99.90;;;;;;6247862;22;20373;-87
2023/05/09 16:18:07;;;;;;;2.47;1.27;;;20.20;99.90;;;;;;6224466;23;20024;-87
2023/05/09 16:20:55;;;;;;;3.95;1.50;;;20.20;99.90;;;;;;6245334;23;20032;-86
2023/05/09 16:23:48;;;;;;;2.67;1.48;;;20.10;99.90;;;;;;6244927;23;20063;-87
2023/05/09 16:26:35;;;;;;;1.75;1.23;;;20.00;99.90;;;;;;6223986;23;20379;-89
2023/05/09 16:29:27;;;;;;;2.35;1.60;;;20.00;99.90;;;;;;6224711;23;20276;-90
2023/05/09 16:32:14;;;;;;;3.60;1.10;;;19.90;99.90;;;;;;6247006;23;20052;-88
2023/05/09 16:35:03;;;;;;;2.33;1.40;;;19.80;99.90;;;;;;6247017;23;20027;-90
2023/05/09 16:37:50;;;;;;;5.43;1.20;;;19.80;99.90;;;;;;6226442;23;20024;-89
2023/05/09 16:40:40;;;;;;;2.13;1.70;;;19.80;99.90;;;;;;6225383;23;20280;-88
2023/05/09 16:43:27;;;;;;;1.42;1.33;;;19.70;99.90;;;;;;6227439;23;20035;-88
2023/05/09 16:46:15;;;;;;;1.60;1.50;;;19.70;99.90;;;;;;6251101;22;20035;-86
2023/05/09 16:49:02;;;;;;;3.70;1.65;;;19.60;99.90;;;;;;6229147;23;20403;-87
2023/05/09 16:51:49;;;;;;;1.90;1.70;;;19.40;99.90;;;;;;6223790;23;20025;-90
2023/05/09 16:54:38;;;;;;;1.63;1.52;;;19.10;99.90;;;;;;6215979;23;20067;-88
2023/05/09 16:57:25;;;;;;;2.08;1.73;;;19.00;99.90;;;;;;6215971;23;20024;-91
2023/05/09 17:00:13;;;;;;;3.35;1.98;;;18.80;99.90;;;;;;6216650;23;20024;-90
2023/05/09 17:03:06;;;;;;;6.10;1.98;;;18.60;99.90;;;;;;6213696;23;20074;-89
2023/05/09 17:05:54;;;;;;;1.80;1.40;;;18.20;99.90;;;;;;6218291;23;20032;-90
2023/05/09 17:08:41;;;;;;;3.03;1.75;;;17.70;99.90;;;;;;6216909;23;20025;-89
2023/05/09 17:11:32;;;;;;;2.65;1.80;;;17.10;1.00;;;;;;6220489;23;20430;-88
2023/05/09 17:14:20;;;;;;;2.50;2.28;;;16.50;15.50;;;;;;6228213;23;20034;-87
2023/05/09 17:17:08;;;;;;;3.20;2.60;;;16.00;99.90;;;;;;6217813;23;20021;-87
2023/05/09 17:19:56;;;;;;;3.40;2.63;;;15.60;99.90;;;;;;6218324;23;20447;-87
2023/05/09 17:22:46;;;;;;;11.32;3.33;;;15.50;98.30;;;;;;6219347;23;20178;-87
2023/05/09 17:25:36;;;;;;;6.28;3.60;;;15.20;1.00;;;;;;6216115;23;20029;-87
2023/05/09 17:28:23;;;;;;;6.57;3.13;;;15.20;99.90;;;;;;6217525;23;20099;-87
2023/05/09 17:31:12;;;;;;;6.22;3.63;;;15.10;99.90;;;;;;6217347;23;20402;-84
2023/05/09 17:34:00;;;;;;;4.70;3.92;;;15.00;68.30;;;;;;6217801;23;20091;-87
2023/05/09 17:36:51;;;;;;;10.23;4.45;;;14.90;99.90;;;;;;6216167;23;20025;-87
2023/05/09 17:39:50;;;;;;;6.20;4.10;;;14.90;94.60;;;;;;6217666;23;20447;-89
2023/05/09 17:42:42;;;;;;;3.13;2.40;;;14.80;99.90;;;;;;6216926;23;20106;-84
2023/05/09 17:45:29;;;;;;;3.67;2.28;;;14.60;99.90;;;;;;6218822;23;20036;-90
2023/05/09 17:48:17;;;;;;;4.32;2.67;;;14.50;99.90;;;;;;6215457;23;20099;-84
2023/05/09 17:51:11;;;;;;;6.40;2.25;;;14.40;99.90;;;;;;6215976;23;20051;-87
2023/05/09 17:54:04;;;;;;;1.95;1.60;;;14.30;99.90;;;;;;6227664;23;20113;-88
2023/05/09 17:57:01;;;;;;;7.32;2.20;;;14.20;99.90;;;;;;6246632;23;20036;-85
2023/05/09 17:59:50;;;;;;;4.72;1.90;;;14.10;99.90;;;;;;6248595;23;20027;-85
2023/05/09 18:02:38;;;;;;;3.83;2.55;;;14.00;99.90;;;;;;6246455;23;20135;-86
2023/05/09 18:05:26;;;;;;;4.63;2.63;;;14.00;99.90;;;;;;6225033;23;20098;-87
2023/05/09 18:08:19;;;;;;;3.28;2.70;;;14.00;99.90;;;;;;6248561;23;20024;-84
2023/05/09 18:11:07;;;;;;;2.97;2.67;;;13.90;99.90;;;;;;6247066;23;20047;-85
2023/05/09 18:13:54;;;;;;;5.22;3.17;;;13.90;99.90;;;;;;6248546;23;20024;-86
2023/05/09 18:16:42;;;;;;;5.78;3.85;;;13.90;99.90;;;;;;6246219;23;20039;-84